Time;durP1;ratioP1;P1;durP2;ratioP2;P2;SDS_P1;SDS_P2;PMS_P1;PMS_P2;Temp;Humidity;BMP_temperature;BMP_pressure;BME280_temperature;BME280_humidity;BME280_pressure;Samples;Min_cycle;Max_cycle;Signal;HPM_P1;HPM_P2
2023/09/23 00:02:21;;;;;;;14.35;11.15;;;;;;;10.06;100.00;100635.03;4949158;28;20082;-71
2023/09/23 00:04:47;;;;;;;16.10;10.93;;;;;;;10.03;100.00;100635.28;4948789;28;20074;-71
2023/09/23 00:07:12;;;;;;;13.65;11.23;;;;;;;10.04;100.00;100638.84;4979930;28;20079;-71
2023/09/23 00:09:38;;;;;;;15.57;11.75;;;;;;;10.03;100.00;100634.41;4947950;28;20031;-71
2023/09/23 00:12:03;;;;;;;14.30;11.35;;;;;;;10.00;100.00;100640.94;4948991;28;20480;-71
2023/09/23 00:14:29;;;;;;;14.68;11.32;;;;;;;9.98;100.00;100648.34;4949498;28;20114;-71
2023/09/23 00:16:55;;;;;;;17.67;11.68;;;;;;;9.95;100.00;100641.25;4958846;28;20126;-71
2023/09/23 00:19:20;;;;;;;15.75;10.90;;;;;;;9.94;100.00;100639.53;4949043;28;20484;-71
2023/09/23 00:21:48;;;;;;;18.27;13.00;;;;;;;9.93;100.00;100642.34;4996301;28;20101;-72
2023/09/23 00:24:14;;;;;;;20.50;14.40;;;;;;;9.92;100.00;100635.19;4966698;28;20518;-71
2023/09/23 00:26:39;;;;;;;21.00;14.50;;;;;;;9.89;100.00;100638.13;4967102;28;20031;-71
2023/09/23 00:29:05;;;;;;;19.88;12.93;;;;;;;9.87;100.00;100642.78;4979585;28;20047;-72
2023/09/23 00:31:30;;;;;;;17.17;12.95;;;;;;;9.86;100.00;100643.78;4949299;28;20039;-71
2023/09/23 00:33:56;;;;;;;16.65;12.55;;;;;;;9.86;100.00;100654.66;4948865;29;20047;-71
2023/09/23 00:36:22;;;;;;;18.20;12.80;;;;;;;9.86;100.00;100660.09;4948937;28;20027;-72
2023/09/23 00:38:47;;;;;;;19.02;13.02;;;;;;;9.86;100.00;100660.09;4982053;28;20471;-71
2023/09/23 00:41:13;;;;;;;18.08;12.32;;;;;;;9.86;100.00;100658.25;4970196;28;20026;-72
2023/09/23 00:43:38;;;;;;;19.42;12.65;;;;;;;9.82;100.00;100662.16;4948920;29;20071;-71
2023/09/23 00:46:05;;;;;;;17.60;12.93;;;;;;;9.81;100.00;100655.00;4948643;28;20040;-72
2023/09/23 00:48:39;;;;;;;18.30;12.00;;;;;;;9.82;100.00;100672.16;4964140;28;20031;-72
2023/09/23 00:51:07;;;;;;;18.38;13.18;;;;;;;9.78;100.00;100671.50;4948572;28;20238;-71
2023/09/23 00:53:35;;;;;;;19.63;13.45;;;;;;;9.77;100.00;100671.63;4951101;28;20671;-72
2023/09/23 00:56:00;;;;;;;17.85;12.55;;;;;;;9.73;100.00;100667.38;4952058;28;20062;-71
2023/09/23 00:58:26;;;;;;;17.33;12.43;;;;;;;9.73;100.00;100670.09;4952306;28;20162;-72
2023/09/23 01:00:54;;;;;;;17.40;12.63;;;;;;;9.72;100.00;100666.50;4982754;28;20061;-72
2023/09/23 01:03:20;;;;;;;17.25;12.27;;;;;;;9.74;100.00;100669.97;4966967;28;20043;-72
2023/09/23 01:05:46;;;;;;;17.00;12.05;;;;;;;9.71;100.00;100660.22;4951746;28;20035;-72
2023/09/23 01:08:12;;;;;;;18.75;11.82;;;;;;;9.75;100.00;100676.31;4951938;29;20521;-71
2023/09/23 01:10:39;;;;;;;16.15;11.52;;;;;;;9.77;100.00;100677.91;4950833;28;20039;-71
2023/09/23 01:13:08;;;;;;;19.55;11.60;;;;;;;9.74;100.00;100675.41;4966591;28;20063;-71
2023/09/23 01:15:38;;;;;;;18.15;11.93;;;;;;;9.80;100.00;100679.56;4966375;28;20047;-71
2023/09/23 01:18:07;;;;;;;21.38;10.88;;;;;;;9.83;100.00;100677.47;4960320;28;20448;-71
2023/09/23 01:20:33;;;;;;;19.75;10.70;;;;;;;9.89;100.00;100679.75;4966036;28;20038;-71
2023/09/23 01:22:58;;;;;;;16.95;9.90;;;;;;;9.95;100.00;100686.59;4952202;29;20404;-71
2023/09/23 01:25:25;;;;;;;19.20;9.73;;;;;;;10.01;100.00;100685.28;4964784;28;20090;-72
2023/09/23 01:27:51;;;;;;;20.42;9.57;;;;;;;10.04;100.00;100683.22;4982627;28;20053;-72
2023/09/23 01:30:16;;;;;;;14.13;8.38;;;;;;;10.12;100.00;100688.97;4951390;28;20475;-71
2023/09/23 01:32:42;;;;;;;18.20;9.80;;;;;;;10.19;100.00;100692.09;4982603;28;20089;-72
2023/09/23 01:35:09;;;;;;;18.38;8.80;;;;;;;10.22;100.00;100694.59;4982927;28;20479;-71
2023/09/23 01:37:37;;;;;;;14.93;8.60;;;;;;;10.26;100.00;100692.53;4966114;28;20176;-71
2023/09/23 01:40:05;;;;;;;15.23;8.32;;;;;;;10.30;100.00;100697.63;4981194;28;20038;-71
2023/09/23 01:42:32;;;;;;;12.45;7.93;;;;;;;10.33;100.00;100699.25;4952292;29;20039;-70
2023/09/23 01:44:58;;;;;;;17.48;7.85;;;;;;;10.33;100.00;100696.53;4951746;29;20019;-71
2023/09/23 01:47:23;;;;;;;11.40;6.75;;;;;;;10.35;100.00;100700.00;4951456;29;20027;-70
2023/09/23 01:49:49;;;;;;;14.75;7.93;;;;;;;10.37;100.00;100696.22;4982013;28;20077;-70
2023/09/23 01:52:16;;;;;;;11.25;6.22;;;;;;;10.39;100.00;100702.38;4981991;28;20097;-70
2023/09/23 01:54:44;;;;;;;12.68;7.35;;;;;;;10.41;100.00;100711.31;4964976;28;20118;-70
2023/09/23 01:57:15;;;;;;;12.13;6.15;;;;;;;10.41;100.00;100700.44;4951136;28;20035;-70
2023/09/23 01:59:41;;;;;;;17.73;7.28;;;;;;;10.41;100.00;100707.72;4981626;28;20404;-70
2023/09/23 02:02:09;;;;;;;13.05;6.45;;;;;;;10.40;100.00;100708.72;4951122;29;20035;-71
2023/09/23 02:04:37;;;;;;;12.52;6.50;;;;;;;10.37;100.00;100717.09;4980887;28;20038;-70
2023/09/23 02:07:04;;;;;;;13.77;5.75;;;;;;;10.36;100.00;100712.66;4982069;28;20199;-70
2023/09/23 02:09:33;;;;;;;11.30;5.65;;;;;;;10.29;100.00;100714.06;4990701;28;20045;-70
2023/09/23 02:11:59;;;;;;;11.65;7.22;;;;;;;10.27;100.00;100716.03;4967887;28;20044;-71
2023/09/23 02:14:25;;;;;;;9.43;5.65;;;;;;;10.24;100.00;100728.00;4965463;28;20496;-71
2023/09/23 02:16:51;;;;;;;11.18;6.55;;;;;;;10.20;100.00;100723.72;4965645;28;20086;-70
2023/09/23 02:19:18;;;;;;;11.25;5.43;;;;;;;10.20;100.00;100732.75;4981046;28;20039;-71
2023/09/23 02:21:43;;;;;;;16.83;5.30;;;;;;;10.15;100.00;100724.06;4965272;28;20031;-71
2023/09/23 02:24:09;;;;;;;13.35;6.20;;;;;;;10.13;100.00;100727.88;4961441;28;20798;-71
2023/09/23 02:26:35;;;;;;;10.27;5.00;;;;;;;10.12;100.00;100735.19;4965276;28;20031;-70
2023/09/23 02:29:00;;;;;;;9.23;4.78;;;;;;;10.10;100.00;100736.25;4951019;28;20070;-71
2023/09/23 02:31:26;;;;;;;9.63;4.90;;;;;;;10.09;100.00;100739.97;4981448;28;20050;-71
2023/09/23 02:33:52;;;;;;;6.53;4.35;;;;;;;10.05;100.00;100742.03;4981040;28;20383;-71
2023/09/23 02:36:18;;;;;;;9.52;4.93;;;;;;;10.06;100.00;100746.47;4965039;28;20045;-71
2023/09/23 02:38:43;;;;;;;13.43;4.97;;;;;;;10.01;100.00;100748.66;4949489;28;20027;-71
2023/09/23 02:41:08;;;;;;;10.18;4.68;;;;;;;10.00;100.00;100751.50;4948415;28;20043;-71
2023/09/23 02:43:34;;;;;;;8.60;5.15;;;;;;;10.01;100.00;100750.50;4981389;28;20027;-71
2023/09/23 02:46:00;;;;;;;9.25;5.03;;;;;;;9.97;100.00;100748.00;4981804;28;20137;-71
2023/09/23 02:48:26;;;;;;;8.68;4.20;;;;;;;9.96;100.00;100759.84;4950243;29;20138;-70
2023/09/23 02:50:52;;;;;;;8.30;4.40;;;;;;;9.95;100.00;100765.41;4949975;28;20043;-70
2023/09/23 02:53:17;;;;;;;9.32;4.35;;;;;;;9.94;100.00;100760.97;4949908;28;20031;-71
2023/09/23 02:55:51;;;;;;;7.72;4.03;;;;;;;9.93;100.00;100768.25;4948929;28;20074;-71
2023/09/23 02:58:17;;;;;;;10.10;3.67;;;;;;;9.91;100.00;100763.88;4964999;28;20049;-70
2023/09/23 03:00:57;;;;;;;11.95;4.93;;;;;;;9.89;100.00;100772.16;4949610;28;20491;-70
2023/09/23 03:03:23;;;;;;;8.85;4.13;;;;;;;9.88;100.00;100769.53;4988590;28;20086;-71
2023/09/23 03:05:54;;;;;;;8.90;4.13;;;;;;;9.86;100.00;100772.34;4949540;28;20047;-71
2023/09/23 03:08:22;;;;;;;9.02;4.05;;;;;;;9.84;100.00;100776.16;4980515;28;20399;-71
2023/09/23 03:10:49;;;;;;;8.02;3.78;;;;;;;9.83;100.00;100775.28;4959933;28;20039;-71
2023/09/23 03:13:17;;;;;;;7.75;4.10;;;;;;;9.82;100.00;100784.41;4964448;28;20035;-70
2023/09/23 03:15:58;;;;;;;10.88;4.65;;;;;;;9.82;100.00;100778.13;4980036;28;20047;-71
2023/09/23 03:18:29;;;;;;;10.48;4.07;;;;;;;9.84;100.00;100779.75;4980172;28;20503;-71
2023/09/23 03:20:55;;;;;;;13.77;3.80;;;;;;;9.85;100.00;100788.78;4964566;28;20645;-71
2023/09/23 03:23:21;;;;;;;7.22;3.92;;;;;;;9.83;100.00;100786.16;4980289;28;20106;-71
2023/09/23 03:25:47;;;;;;;12.82;4.10;;;;;;;9.83;100.00;100788.00;4979656;28;20019;-70
2023/09/23 03:28:17;;;;;;;11.27;4.15;;;;;;;9.84;100.00;100787.00;4980598;28;20502;-71
2023/09/23 03:30:44;;;;;;;10.75;4.20;;;;;;;9.84;100.00;100796.06;4980157;28;20034;-72
2023/09/23 03:33:12;;;;;;;8.95;4.70;;;;;;;9.84;100.00;100790.63;4964166;28;20491;-71
2023/09/23 03:35:38;;;;;;;10.90;3.70;;;;;;;9.84;100.00;100804.22;4963925;28;20042;-72
2023/09/23 03:38:04;;;;;;;8.50;3.65;;;;;;;9.82;100.00;100798.00;4963941;28;20074;-71
2023/09/23 03:40:31;;;;;;;8.23;4.22;;;;;;;9.84;100.00;100806.03;4990642;28;20055;-72
2023/09/23 03:42:57;;;;;;;12.23;3.55;;;;;;;9.83;100.00;100804.31;4949448;29;20035;-71
2023/09/23 03:45:23;;;;;;;7.95;4.00;;;;;;;9.84;100.00;100804.22;4949114;29;20043;-71
2023/09/23 03:47:49;;;;;;;6.85;3.78;;;;;;;9.83;100.00;100796.16;4979978;28;20043;-71
2023/09/23 03:50:15;;;;;;;11.95;4.00;;;;;;;9.82;100.00;100808.88;4948993;28;20058;-71
2023/09/23 03:52:41;;;;;;;9.63;3.63;;;;;;;9.82;100.00;100816.16;4948851;29;20035;-71
2023/09/23 03:55:08;;;;;;;8.77;3.80;;;;;;;9.83;100.00;100815.16;4963065;28;20035;-71
2023/09/23 03:57:34;;;;;;;9.35;5.18;;;;;;;9.83;100.00;100817.88;4963891;28;20058;-72
2023/09/23 04:00:00;;;;;;;8.20;3.85;;;;;;;9.84;100.00;100814.19;4963933;28;20551;-71
2023/09/23 04:02:25;;;;;;;8.82;4.13;;;;;;;9.84;100.00;100803.31;4979942;28;20189;-72
2023/09/23 04:04:53;;;;;;;10.40;4.10;;;;;;;9.84;100.00;100812.38;4948856;28;20105;-71
2023/09/23 04:07:22;;;;;;;10.98;4.28;;;;;;;9.87;100.00;100809.41;4947402;29;20644;-72
2023/09/23 04:09:47;;;;;;;11.15;4.03;;;;;;;9.88;100.00;100811.16;4948158;28;20046;-72
2023/09/23 04:12:13;;;;;;;11.85;4.55;;;;;;;9.90;100.00;100817.38;4948935;28;20039;-72
2023/09/23 04:14:39;;;;;;;8.55;4.35;;;;;;;9.93;100.00;100825.31;4963872;28;20386;-72
2023/09/23 04:17:05;;;;;;;11.77;4.70;;;;;;;9.94;100.00;100823.47;4979729;28;20094;-72
2023/09/23 04:19:30;;;;;;;11.75;4.65;;;;;;;9.97;100.00;100823.22;4980362;28;20035;-72
2023/09/23 04:21:56;;;;;;;8.07;4.22;;;;;;;9.96;100.00;100825.06;4949314;29;20042;-71
2023/09/23 04:24:22;;;;;;;16.83;4.53;;;;;;;9.97;100.00;100834.97;4948032;28;20439;-72
2023/09/23 04:26:47;;;;;;;9.90;4.53;;;;;;;9.96;100.00;100827.78;4980151;28;20035;-71
2023/09/23 04:29:14;;;;;;;8.73;4.20;;;;;;;9.94;100.00;100839.75;4952389;28;20050;-71
2023/09/23 04:31:39;;;;;;;10.05;4.15;;;;;;;9.91;100.00;100846.28;4952902;29;20050;-72
2023/09/23 04:34:05;;;;;;;8.27;4.32;;;;;;;9.91;100.00;100846.28;4983599;28;20097;-71
2023/09/23 04:36:30;;;;;;;11.88;5.20;;;;;;;9.89;100.00;100847.38;4953021;28;20035;-72
2023/09/23 04:38:55;;;;;;;9.68;3.70;;;;;;;9.88;100.00;100857.34;4986270;28;20041;-72
2023/09/23 04:41:21;;;;;;;11.95;4.18;;;;;;;9.86;100.00;100855.72;4959446;28;20062;-72
2023/09/23 04:43:47;;;;;;;11.02;4.30;;;;;;;9.83;100.00;100855.94;4952614;29;20479;-72
2023/09/23 04:46:14;;;;;;;9.23;4.45;;;;;;;9.84;100.00;100868.53;4950996;29;20074;-71
2023/09/23 04:48:41;;;;;;;12.43;4.45;;;;;;;9.81;100.00;100864.19;4966805;28;20039;-71
2023/09/23 04:51:09;;;;;;;10.05;4.63;;;;;;;9.82;100.00;100857.78;4967092;28;20066;-72
2023/09/23 04:53:35;;;;;;;7.38;3.88;;;;;;;9.83;100.00;100864.94;4951612;29;20054;-71
2023/09/23 04:56:08;;;;;;;11.25;5.10;;;;;;;9.80;100.00;100861.59;4982896;28;20408;-72
2023/09/23 04:58:33;;;;;;;11.88;3.95;;;;;;;9.81;100.00;100869.63;4952369;29;20039;-71
2023/09/23 05:00:59;;;;;;;9.93;4.28;;;;;;;9.78;100.00;100861.69;4966872;28;20491;-71
2023/09/23 05:03:24;;;;;;;7.70;4.05;;;;;;;9.79;100.00;100870.69;4952233;29;20043;-71
2023/09/23 05:05:50;;;;;;;9.25;4.50;;;;;;;9.79;100.00;100876.13;4951998;28;20410;-72
2023/09/23 05:08:15;;;;;;;8.75;4.72;;;;;;;9.77;100.00;100891.69;4965956;28;20105;-72
2023/09/23 05:10:41;;;;;;;9.07;4.43;;;;;;;9.77;100.00;100886.25;4963557;28;20360;-72
2023/09/23 05:13:10;;;;;;;10.57;4.93;;;;;;;9.75;100.00;100899.94;4952072;29;20073;-72
2023/09/23 05:15:35;;;;;;;14.13;4.88;;;;;;;9.74;100.00;100902.75;4962657;28;20240;-72
2023/09/23 05:18:00;;;;;;;9.73;5.22;;;;;;;9.75;100.00;100912.66;4952531;29;20038;-72
2023/09/23 05:20:26;;;;;;;15.13;5.20;;;;;;;9.75;100.00;100916.25;4982466;28;20128;-71
2023/09/23 05:22:52;;;;;;;10.73;5.15;;;;;;;9.69;100.00;100909.34;4951534;29;20034;-72
2023/09/23 05:25:17;;;;;;;8.55;4.68;;;;;;;9.76;100.00;100911.69;4951218;28;20057;-72
2023/09/23 05:27:43;;;;;;;8.95;4.97;;;;;;;9.74;100.00;100924.47;4951609;29;20483;-72
2023/09/23 05:30:12;;;;;;;7.93;5.10;;;;;;;9.76;100.00;100936.13;4952101;28;20054;-71
2023/09/23 05:32:38;;;;;;;10.70;5.43;;;;;;;9.76;100.00;100937.00;4971141;28;20038;-71
2023/09/23 05:35:10;;;;;;;15.65;5.45;;;;;;;9.77;100.00;100943.28;4957568;28;20031;-71
2023/09/23 05:37:36;;;;;;;7.78;4.93;;;;;;;9.77;100.00;100943.28;4992364;28;20038;-72
2023/09/23 05:40:08;;;;;;;9.63;5.25;;;;;;;9.77;100.00;100940.59;4963794;28;20424;-71
2023/09/23 05:42:34;;;;;;;10.00;4.80;;;;;;;9.78;100.00;100955.91;4954261;28;20403;-71
2023/09/23 05:44:59;;;;;;;11.65;5.45;;;;;;;9.75;100.00;100956.13;4970751;28;20045;-69
2023/09/23 05:47:24;;;;;;;9.20;5.20;;;;;;;9.75;100.00;100953.41;4966888;28;20054;-69
2023/09/23 05:49:50;;;;;;;10.73;5.25;;;;;;;9.75;100.00;100962.44;4967695;28;20044;-70
2023/09/23 05:52:15;;;;;;;9.63;5.50;;;;;;;9.74;100.00;100966.09;4970102;28;20069;-70
2023/09/23 05:54:41;;;;;;;10.70;5.50;;;;;;;9.71;100.00;100963.59;4969418;28;20093;-70
2023/09/23 05:57:07;;;;;;;9.85;5.20;;;;;;;9.76;100.00;100974.16;4967118;28;20019;-72
2023/09/23 05:59:32;;;;;;;8.43;4.95;;;;;;;9.77;100.00;100975.91;4951112;28;20066;-72
2023/09/23 06:01:57;;;;;;;8.23;5.22;;;;;;;9.79;100.00;100982.09;4951720;28;20066;-72
2023/09/23 06:04:23;;;;;;;14.27;5.53;;;;;;;9.81;100.00;100983.75;4950336;28;20094;-73
2023/09/23 06:06:48;;;;;;;9.30;4.85;;;;;;;9.87;100.00;100993.31;4983380;28;20082;-69
2023/09/23 06:09:15;;;;;;;8.68;4.82;;;;;;;9.90;100.00;100995.84;4961973;28;20050;-68
2023/09/23 06:11:43;;;;;;;10.15;5.22;;;;;;;9.91;100.00;100997.59;4950994;28;20150;-68
2023/09/23 06:14:10;;;;;;;9.40;3.90;;;;;;;9.91;100.00;101006.59;4950642;28;20043;-70
2023/09/23 06:16:35;;;;;;;10.68;5.03;;;;;;;9.90;100.00;101010.31;4950695;28;20035;-69
2023/09/23 06:19:00;;;;;;;11.65;4.60;;;;;;;9.91;100.00;101017.47;4955888;28;20029;-69
2023/09/23 06:21:26;;;;;;;12.30;4.97;;;;;;;9.90;100.00;101018.44;4953124;28;20150;-69
2023/09/23 06:23:51;;;;;;;9.25;4.60;;;;;;;9.95;100.00;101021.72;4949623;29;20081;-71
2023/09/23 06:26:17;;;;;;;8.68;5.22;;;;;;;9.99;100.00;101027.84;4950335;28;20058;-70
2023/09/23 06:28:42;;;;;;;9.82;4.55;;;;;;;10.03;100.00;101031.22;4981615;28;20054;-68
2023/09/23 06:31:09;;;;;;;8.68;4.70;;;;;;;10.05;100.00;101029.28;4980956;28;20078;-69
2023/09/23 06:33:35;;;;;;;11.30;5.20;;;;;;;10.05;100.00;101030.13;4981365;28;20039;-69
2023/09/23 06:36:04;;;;;;;10.48;5.38;;;;;;;10.10;100.00;101041.56;4950620;28;20546;-68
2023/09/23 06:38:31;;;;;;;10.63;5.45;;;;;;;10.13;100.00;101043.22;4949108;28;20391;-71
2023/09/23 06:40:56;;;;;;;10.90;4.95;;;;;;;10.14;100.00;101045.81;4949223;28;20074;-72
2023/09/23 06:43:21;;;;;;;11.15;5.05;;;;;;;10.21;100.00;101055.34;4950370;28;20109;-68
2023/09/23 06:46:05;;;;;;;15.27;5.18;;;;;;;10.25;100.00;101057.84;4985534;28;20042;-71
2023/09/23 06:48:31;;;;;;;9.70;5.03;;;;;;;10.30;100.00;101059.28;4970103;28;20078;-69
2023/09/23 06:51:02;;;;;;;14.20;5.28;;;;;;;10.32;100.00;101061.91;4956015;28;20089;-70
2023/09/23 06:53:28;;;;;;;8.63;5.60;;;;;;;10.34;100.00;101062.66;4950163;28;20035;-68
2023/09/23 06:55:54;;;;;;;14.60;5.22;;;;;;;10.36;100.00;101061.59;4949228;28;20067;-69
2023/09/23 06:58:19;;;;;;;10.38;5.85;;;;;;;10.40;100.00;101062.28;4981156;28;20139;-68
2023/09/23 07:00:45;;;;;;;13.82;4.50;;;;;;;10.45;100.00;101077.28;4964292;28;20046;-69
2023/09/23 07:03:10;;;;;;;10.40;5.00;;;;;;;10.47;100.00;101075.31;4964836;28;20443;-68
2023/09/23 07:05:35;;;;;;;10.25;6.10;;;;;;;10.51;100.00;101078.72;4980296;28;20085;-68
2023/09/23 07:08:01;;;;;;;11.35;5.28;;;;;;;10.58;100.00;101084.59;4950151;29;20043;-68
2023/09/23 07:10:27;;;;;;;12.52;5.72;;;;;;;10.63;100.00;101086.06;4961203;28;20132;-69
2023/09/23 07:12:53;;;;;;;9.85;5.05;;;;;;;10.69;100.00;101090.19;4949950;29;20061;-70
2023/09/23 07:15:18;;;;;;;10.55;5.30;;;;;;;10.68;100.00;101092.03;4949757;29;20226;-69
2023/09/23 07:17:43;;;;;;;11.50;5.22;;;;;;;10.71;100.00;101093.66;4949514;28;20027;-68
2023/09/23 07:20:10;;;;;;;13.73;5.93;;;;;;;10.75;100.00;101099.78;4980332;28;20387;-70
2023/09/23 07:22:35;;;;;;;12.88;5.50;;;;;;;10.77;100.00;101106.88;4949653;28;20066;-68
2023/09/23 07:25:00;;;;;;;8.65;5.50;;;;;;;10.81;100.00;101108.38;4963779;28;20487;-68
2023/09/23 07:27:26;;;;;;;9.50;5.43;;;;;;;10.84;100.00;101112.75;4949613;29;20063;-69
2023/09/23 07:29:51;;;;;;;12.05;5.97;;;;;;;10.93;100.00;101115.69;4980325;28;20094;-69
2023/09/23 07:32:17;;;;;;;11.35;5.72;;;;;;;11.01;100.00;101126.06;4949571;28;20039;-69
2023/09/23 07:34:42;;;;;;;14.18;6.60;;;;;;;11.08;100.00;101130.09;4949031;28;20137;-68
2023/09/23 07:37:09;;;;;;;8.98;5.25;;;;;;;11.15;100.00;101120.53;4949084;29;20062;-68
2023/09/23 07:39:34;;;;;;;8.95;5.53;;;;;;;11.19;100.00;101126.59;4948162;28;20039;-67
2023/09/23 07:41:59;;;;;;;12.85;5.32;;;;;;;11.22;100.00;101131.84;4959262;28;20046;-68
2023/09/23 07:44:25;;;;;;;12.73;5.45;;;;;;;11.28;100.00;101142.28;4968477;28;20041;-69
2023/09/23 07:46:50;;;;;;;13.00;5.65;;;;;;;11.33;100.00;101137.41;4963513;28;20089;-72
2023/09/23 07:49:15;;;;;;;10.30;6.30;;;;;;;11.42;100.00;101152.22;4983027;28;20042;-69
2023/09/23 07:51:40;;;;;;;12.63;5.85;;;;;;;11.52;100.00;101147.88;4959902;28;20053;-68
2023/09/23 07:54:06;;;;;;;11.35;5.65;;;;;;;11.62;100.00;101157.13;4997820;28;20042;-69
2023/09/23 07:56:31;;;;;;;12.93;5.72;;;;;;;11.70;100.00;101152.00;4996078;28;20043;-71
2023/09/23 07:58:57;;;;;;;8.98;5.40;;;;;;;11.78;100.00;101156.00;4968794;28;20030;-69
2023/09/23 08:01:22;;;;;;;10.80;6.05;;;;;;;11.87;100.00;101153.50;4967830;28;20062;-69
2023/09/23 08:03:47;;;;;;;12.85;5.75;;;;;;;11.97;100.00;101159.16;4971203;28;20382;-70
2023/09/23 08:06:13;;;;;;;13.60;5.80;;;;;;;12.08;100.00;101172.91;4966259;28;20043;-70
2023/09/23 08:08:38;;;;;;;12.88;5.43;;;;;;;12.24;100.00;101178.94;4971060;28;20038;-70
2023/09/23 08:11:05;;;;;;;9.48;4.85;;;;;;;12.34;100.00;101179.13;4989719;28;20042;-70
2023/09/23 08:13:30;;;;;;;13.48;5.22;;;;;;;12.48;100.00;101189.03;4953688;28;20121;-69
2023/09/23 08:16:00;;;;;;;11.35;4.80;;;;;;;12.53;100.00;101175.91;4966149;28;20145;-70
2023/09/23 08:18:25;;;;;;;10.63;5.05;;;;;;;12.50;100.00;101187.94;4969273;28;20081;-69
2023/09/23 08:20:57;;;;;;;9.40;4.55;;;;;;;12.58;100.00;101183.72;4969608;28;20959;-69
2023/09/23 08:23:23;;;;;;;13.23;5.20;;;;;;;12.63;100.00;101184.25;4969996;28;20184;-70
2023/09/23 08:25:48;;;;;;;18.55;5.95;;;;;;;12.72;100.00;101191.75;4964185;28;20034;-70
2023/09/23 08:28:14;;;;;;;11.57;4.90;;;;;;;12.80;100.00;101202.97;4985798;28;20043;-69
2023/09/23 08:30:42;;;;;;;9.20;4.35;;;;;;;12.89;100.00;101205.00;4971552;28;20114;-70
2023/09/23 08:33:07;;;;;;;10.75;4.57;;;;;;;12.99;100.00;101191.50;4959828;28;20628;-69
2023/09/23 08:35:33;;;;;;;9.75;4.30;;;;;;;13.10;100.00;101207.06;4962173;28;20027;-69
2023/09/23 08:37:58;;;;;;;9.35;4.68;;;;;;;13.14;100.00;101209.44;4967533;28;20035;-70
2023/09/23 08:40:24;;;;;;;15.52;4.63;;;;;;;13.22;100.00;101211.63;4982139;28;20479;-70
2023/09/23 08:42:53;;;;;;;8.43;4.72;;;;;;;13.32;100.00;101215.38;4983640;28;20062;-70
2023/09/23 08:45:21;;;;;;;8.65;4.65;;;;;;;13.38;100.00;101233.13;4962182;28;20030;-72
2023/09/23 08:47:47;;;;;;;10.82;3.80;;;;;;;13.45;100.00;101226.22;5001242;28;20043;-69
2023/09/23 08:50:13;;;;;;;8.32;4.05;;;;;;;13.57;100.00;101233.47;4965966;28;20077;-70
2023/09/23 08:52:39;;;;;;;7.25;4.22;;;;;;;13.76;100.00;101244.69;4951848;29;20035;-71
2023/09/23 08:55:07;;;;;;;8.38;3.70;;;;;;;14.06;100.00;101245.94;4982376;28;20031;-71
2023/09/23 08:57:33;;;;;;;7.28;3.45;;;;;;;14.40;100.00;101252.25;4962576;28;20039;-70
2023/09/23 08:59:58;;;;;;;8.10;4.05;;;;;;;14.54;100.00;101256.63;4971764;28;20478;-70
2023/09/23 09:02:25;;;;;;;5.45;3.70;;;;;;;14.58;100.00;101258.13;4986653;28;20050;-69
2023/09/23 09:04:58;;;;;;;6.60;3.72;;;;;;;14.62;100.00;101251.41;4957267;28;20471;-69
2023/09/23 09:07:34;;;;;;;9.07;3.78;;;;;;;14.61;100.00;101257.03;4950685;29;20047;-69
2023/09/23 09:09:59;;;;;;;9.13;3.63;;;;;;;14.68;100.00;101261.84;4951673;28;20047;-70
2023/09/23 09:12:25;;;;;;;8.40;3.60;;;;;;;14.71;100.00;101264.34;4951274;28;20043;-70
2023/09/23 09:14:53;;;;;;;9.63;3.67;;;;;;;14.76;100.00;101272.16;4951574;29;20023;-71
2023/09/23 09:17:19;;;;;;;8.35;3.25;;;;;;;14.76;100.00;101274.91;4966310;28;20039;-69
2023/09/23 09:19:45;;;;;;;9.63;3.30;;;;;;;14.77;100.00;101262.94;4951504;28;21811;-69
2023/09/23 09:22:11;;;;;;;5.75;2.75;;;;;;;14.88;100.00;101278.50;4958945;28;20143;-71
2023/09/23 09:24:36;;;;;;;7.97;2.60;;;;;;;14.92;99.89;101282.69;4985191;28;20038;-71
2023/09/23 09:27:02;;;;;;;8.32;2.85;;;;;;;14.95;100.00;101286.06;4951828;28;20047;-72
2023/09/23 09:29:29;;;;;;;5.70;3.30;;;;;;;14.94;100.00;101292.56;4983004;28;20094;-69
2023/09/23 09:32:00;;;;;;;11.10;3.30;;;;;;;14.89;98.56;101294.81;4951740;29;20031;-70
2023/09/23 09:34:30;;;;;;;5.20;2.83;;;;;;;14.94;100.00;101302.66;4958819;28;20043;-72
2023/09/23 09:36:57;;;;;;;8.27;3.58;;;;;;;14.93;98.24;101298.16;4968740;28;20049;-70
2023/09/23 09:39:32;;;;;;;8.98;3.17;;;;;;;14.83;98.83;101299.91;4968894;28;20119;-69
2023/09/23 09:42:01;;;;;;;10.10;3.42;;;;;;;14.79;98.99;101304.78;4989847;28;20077;-70
2023/09/23 09:44:28;;;;;;;7.28;3.30;;;;;;;14.77;98.30;101298.56;4970465;28;20505;-70
2023/09/23 09:46:54;;;;;;;5.15;3.13;;;;;;;14.77;98.22;101299.41;4964924;28;20118;-70
2023/09/23 09:49:21;;;;;;;8.32;3.33;;;;;;;14.78;98.74;101309.41;4968601;28;20031;-70
2023/09/23 09:51:48;;;;;;;8.82;3.10;;;;;;;14.75;98.80;101312.38;4955592;28;20409;-71
2023/09/23 09:54:18;;;;;;;6.50;3.03;;;;;;;14.81;97.92;101311.00;4965276;28;20073;-69
2023/09/23 09:56:46;;;;;;;8.18;3.08;;;;;;;14.85;96.63;101326.19;4956050;28;20486;-70
2023/09/23 09:59:22;;;;;;;9.70;3.20;;;;;;;14.92;99.44;101321.06;4950678;28;20035;-71
2023/09/23 10:01:52;;;;;;;9.40;3.42;;;;;;;14.96;98.55;101322.56;4951083;29;20526;-70
2023/09/23 10:04:19;;;;;;;11.65;3.05;;;;;;;15.07;98.84;101319.81;4967111;28;20115;-72
2023/09/23 10:06:53;;;;;;;8.30;3.00;;;;;;;15.11;96.60;101320.38;4984681;28;20030;-70
2023/09/23 10:09:28;;;;;;;4.15;2.38;;;;;;;15.15;97.25;101320.00;4949103;28;20114;-71
2023/09/23 10:11:54;;;;;;;8.38;2.67;;;;;;;15.27;98.22;101320.84;4951976;28;20034;-70
2023/09/23 10:14:20;;;;;;;10.10;3.60;;;;;;;15.49;96.53;101331.75;4968521;28;20045;-70
2023/09/23 10:16:59;;;;;;;7.55;3.38;;;;;;;15.73;97.47;101325.19;4957815;28;20031;-70
2023/09/23 10:19:38;;;;;;;6.78;3.10;;;;;;;16.01;97.15;101324.50;4961240;28;20043;-71
2023/09/23 10:22:11;;;;;;;6.25;2.60;;;;;;;16.13;97.04;101328.03;4964515;28;20100;-71
2023/09/23 10:24:37;;;;;;;4.03;2.70;;;;;;;16.21;95.16;101328.22;4982875;28;20039;-71
2023/09/23 10:27:05;;;;;;;6.50;2.80;;;;;;;16.19;91.72;101335.75;4967322;28;20380;-71
2023/09/23 10:29:41;;;;;;;7.40;2.65;;;;;;;16.16;92.19;101344.25;4970243;28;20022;-70
2023/09/23 10:32:14;;;;;;;7.47;3.15;;;;;;;16.12;92.00;101342.78;4963830;28;20062;-71
2023/09/23 10:34:47;;;;;;;8.93;3.08;;;;;;;16.16;91.66;101352.47;4988173;28;20043;-71
2023/09/23 10:37:22;;;;;;;7.20;3.15;;;;;;;16.18;91.49;101345.00;4984254;28;20030;-69
2023/09/23 10:39:48;;;;;;;8.48;3.50;;;;;;;16.17;91.78;101347.84;4992016;28;20078;-70
2023/09/23 10:42:14;;;;;;;9.52;4.13;;;;;;;16.14;91.30;101360.00;4953247;28;20065;-69
2023/09/23 10:44:39;;;;;;;7.43;3.03;;;;;;;16.14;91.16;101356.38;4969342;28;20027;-70
2023/09/23 10:47:05;;;;;;;5.25;3.50;;;;;;;16.10;90.31;101360.41;4962960;28;20038;-70
2023/09/23 10:49:30;;;;;;;7.03;3.63;;;;;;;16.04;89.14;101359.94;4991590;28;20551;-70
2023/09/23 10:51:57;;;;;;;7.05;3.30;;;;;;;16.12;90.74;101366.63;4955796;28;20518;-71
2023/09/23 10:54:24;;;;;;;5.38;3.35;;;;;;;16.21;91.48;101363.94;4967237;28;20339;-69
2023/09/23 10:56:49;;;;;;;7.13;3.65;;;;;;;16.32;92.89;101361.13;4995911;28;20026;-70
2023/09/23 10:59:15;;;;;;;9.02;3.97;;;;;;;16.30;89.79;101374.09;4967415;28;20147;-70
2023/09/23 11:01:42;;;;;;;8.52;4.05;;;;;;;16.25;90.71;101386.50;4981198;28;20035;-70
2023/09/23 11:04:08;;;;;;;6.38;3.88;;;;;;;16.17;90.88;101378.06;4949445;29;20039;-71
2023/09/23 11:06:33;;;;;;;6.68;3.60;;;;;;;16.03;90.11;101384.75;4980589;28;20046;-69
2023/09/23 11:08:59;;;;;;;8.43;4.10;;;;;;;15.91;90.51;101386.69;4948926;28;20066;-70
2023/09/23 11:11:25;;;;;;;9.93;3.53;;;;;;;15.84;90.50;101388.22;4949583;28;20117;-70
2023/09/23 11:13:50;;;;;;;4.90;4.10;;;;;;;15.93;92.83;101387.41;4980521;28;20045;-69
2023/09/23 11:16:15;;;;;;;6.47;4.28;;;;;;;16.31;92.37;101381.31;4949364;29;20050;-69